»·PEaware :: AAL1228 KOAK-KSEA

AAL1228 :: KOAK-KSEA

FLIGHT INFORMATION

Flight Status: Arrived
Operator:
American Airlines
More flights by this operator :: More flights under this callsign
Pilot: Michael M. (12217)
Aircraft: BOEING 767-300
(B763)
More flights by this aircraft type
Origin: KOAK Metro Oakland Intl
United States
Destination: KSEA Seattle-Tacoma Intl
United States
More flights between these airports :: More routes between these airports
Route: +OAK2 OAK DEDHD RBL LMT HAWKZ6
File this flight plan on PilotEdge
Remarks:
Altitude:
(Current/Filed)
38,000ft
Speed:
(Current/Filed)
510kts
Departed: 02-Feb-18 06:17 PM
Arrived: 02-Feb-18 08:06 PM
Distance/Time
Traveled:
584nm/1:49
Distance/Time
To Go:
Arrived

Flight Plot

Page will automatically refresh every two minutes.

Flight plan parsing failed; only flown route is shown


Map Options




Map Legend


Flown Route
Filed Route
Departure Airport
Arrival Airport
Navaid (VOR, NDB)
Fix

Horizontal Profiles

Position Reports

Time Latitude Longitude Heading Altitude Ground
Speed
02-Feb-18 17:42 37.710340 -122.216661 36 14ft 0kts
02-Feb-18 17:43 37.710340 -122.216661 36 14ft 0kts
02-Feb-18 17:44 37.710340 -122.216661 36 14ft 0kts
02-Feb-18 17:45 37.710340 -122.216661 36 14ft 0kts
02-Feb-18 17:46 37.710340 -122.216661 36 14ft 0kts
02-Feb-18 17:47 37.710340 -122.216661 36 14ft 0kts
02-Feb-18 17:48 37.710340 -122.216661 36 14ft 0kts
02-Feb-18 17:49 37.710340 -122.216661 36 14ft 0kts
02-Feb-18 17:50 37.710340 -122.216661 36 14ft 0kts
02-Feb-18 17:51 37.710340 -122.216661 36 14ft 0kts
02-Feb-18 17:52 37.710340 -122.216661 36 14ft 0kts
02-Feb-18 17:53 37.710340 -122.216661 36 14ft 0kts
02-Feb-18 17:54 37.710340 -122.216661 36 14ft 0kts
02-Feb-18 17:55 37.710340 -122.216661 36 14ft 0kts
02-Feb-18 17:56 37.710340 -122.216661 36 14ft 0kts
02-Feb-18 17:57 37.710340 -122.216661 36 14ft 0kts
02-Feb-18 17:58 37.710340 -122.216661 36 14ft 0kts
02-Feb-18 17:59 37.710340 -122.216661 36 14ft 0kts
02-Feb-18 18:00 37.710340 -122.216661 36 14ft 0kts
02-Feb-18 18:01 37.710340 -122.216661 36 14ft 0kts
02-Feb-18 18:02 37.710340 -122.216661 36 15ft 0kts
02-Feb-18 18:03 37.710340 -122.216661 36 14ft 0kts
02-Feb-18 18:04 37.710340 -122.216661 36 14ft 0kts
02-Feb-18 18:05 37.710340 -122.216661 36 14ft 0kts
02-Feb-18 18:06 37.710340 -122.216661 36 14ft 0kts
02-Feb-18 18:07 37.710339 -122.216661 36 15ft 0kts
02-Feb-18 18:08 37.710246 -122.216986 76 14ft 2kts
02-Feb-18 18:09 37.710101 -122.217588 36 15ft 1kts
02-Feb-18 18:10 37.710088 -122.217600 36 14ft 0kts
02-Feb-18 18:11 37.710088 -122.217600 36 14ft 0kts
02-Feb-18 18:12 37.710088 -122.217600 36 14ft 0kts
02-Feb-18 18:13 37.710088 -122.217600 36 14ft 0kts
02-Feb-18 18:14 37.710088 -122.217600 36 14ft 0kts
02-Feb-18 18:15 37.710179 -122.217431 74 14ft 5kts
02-Feb-18 18:16 37.709273 -122.216097 126 14ft 7kts
02-Feb-18 18:17 37.707334 -122.217415 215 14ft 11kts
02-Feb-18 18:18 37.704857 -122.215488 126 14ft 13kts
02-Feb-18 18:19 37.702734 -122.213575 167 14ft 2kts
02-Feb-18 18:20 37.702727 -122.213573 167 14ft 0kts
02-Feb-18 18:21 37.702727 -122.213573 167 14ft 0kts
02-Feb-18 18:22 37.702154 -122.215242 306 14ft 14kts
02-Feb-18 18:23 37.725899 -122.248440 309 1793ft 181kts
02-Feb-18 18:24 37.760178 -122.301243 310 4843ft 198kts
02-Feb-18 18:25 37.795035 -122.354882 310 7957ft 205kts
02-Feb-18 18:26 37.845532 -122.384428 26 10019ft 266kts
02-Feb-18 18:27 37.907905 -122.310570 43 12547ft 335kts
02-Feb-18 18:28 37.979890 -122.239035 21 16082ft 346kts
02-Feb-18 18:29 38.072457 -122.201360 13 19049ft 367kts
02-Feb-18 18:30 38.166656 -122.169349 12 19040ft 358kts
02-Feb-18 18:31 38.262816 -122.137165 12 19039ft 358kts
02-Feb-18 18:32 38.361654 -122.115103 355 21366ft 367kts
02-Feb-18 18:33 38.465010 -122.121711 354 24109ft 381kts
02-Feb-18 18:34 38.558706 -122.128109 353 26212ft 394kts
02-Feb-18 18:35 38.669810 -122.135760 353 28370ft 409kts
02-Feb-18 18:36 38.784715 -122.143702 352 30305ft 423kts
02-Feb-18 18:37 38.903173 -122.151900 351 32394ft 428kts
02-Feb-18 18:38 39.019630 -122.160026 353 34666ft 419kts
02-Feb-18 18:39 39.132208 -122.167860 353 36366ft 414kts
02-Feb-18 18:40 39.246635 -122.175866 353 37564ft 415kts
02-Feb-18 18:41 39.360387 -122.183847 353 38153ft 409kts
02-Feb-18 18:42 39.474422 -122.191887 353 38165ft 414kts
02-Feb-18 18:43 39.589130 -122.199991 353 38166ft 413kts
02-Feb-18 18:44 39.703419 -122.208096 353 38170ft 413kts
02-Feb-18 18:45 39.817528 -122.216217 353 38172ft 413kts
02-Feb-18 18:46 39.932190 -122.224402 353 38188ft 413kts
02-Feb-18 18:47 40.046440 -122.232585 353 38203ft 413kts
02-Feb-18 18:48 40.158146 -122.221712 6 38215ft 420kts
02-Feb-18 18:49 40.272703 -122.194504 6 38210ft 419kts
02-Feb-18 18:50 40.387059 -122.166897 6 38215ft 419kts
02-Feb-18 18:51 40.501278 -122.139205 6 38227ft 419kts
02-Feb-18 18:52 40.615831 -122.111330 6 38230ft 419kts
02-Feb-18 18:53 40.728649 -122.083783 6 38227ft 419kts
02-Feb-18 18:54 40.842622 -122.055853 6 38225ft 419kts
02-Feb-18 18:55 40.957239 -122.027670 6 38225ft 419kts
02-Feb-18 18:56 41.069638 -121.999919 6 38219ft 407kts
02-Feb-18 18:57 41.173600 -121.974191 5 38270ft 400kts
02-Feb-18 18:58 41.283109 -121.947002 6 38390ft 402kts
02-Feb-18 18:59 41.389452 -121.920497 6 38407ft 401kts
02-Feb-18 19:00 41.497315 -121.893521 6 38406ft 402kts
02-Feb-18 19:01 41.607057 -121.865988 6 38402ft 401kts
02-Feb-18 19:02 41.716707 -121.838376 6 38403ft 403kts
02-Feb-18 19:03 41.825911 -121.810786 6 38401ft 402kts
02-Feb-18 19:04 41.935525 -121.782986 6 38400ft 402kts
02-Feb-18 19:05 42.045196 -121.755085 6 38396ft 402kts
02-Feb-18 19:06 42.152912 -121.731419 355 38402ft 396kts
02-Feb-18 19:07 42.260970 -121.752206 348 38406ft 393kts
02-Feb-18 19:08 42.368526 -121.776435 347 38407ft 393kts
02-Feb-18 19:09 42.476004 -121.800940 347 38404ft 393kts
02-Feb-18 19:10 42.583469 -121.825534 347 38402ft 393kts
02-Feb-18 19:11 42.691001 -121.850249 348 38402ft 393kts
02-Feb-18 19:12 42.797993 -121.874918 348 38408ft 392kts
02-Feb-18 19:13 42.904922 -121.899651 348 38412ft 391kts
02-Feb-18 19:14 43.010901 -121.924252 348 38405ft 383kts
02-Feb-18 19:15 43.112812 -121.948005 348 38411ft 382kts
02-Feb-18 19:16 43.217494 -121.972477 348 38409ft 382kts
02-Feb-18 19:17 43.321712 -121.996927 348 38373ft 382kts
02-Feb-18 19:18 43.423892 -122.020983 348 38353ft 382kts
02-Feb-18 19:19 43.528282 -122.045641 348 38338ft 382kts
02-Feb-18 19:20 43.632793 -122.070418 348 38336ft 382kts
02-Feb-18 19:21 43.737216 -122.095258 348 38333ft 382kts
02-Feb-18 19:22 43.841431 -122.120155 348 38332ft 382kts
02-Feb-18 19:23 43.945692 -122.145119 348 38332ft 382kts
02-Feb-18 19:24 44.050463 -122.170311 348 38331ft 382kts
02-Feb-18 19:25 44.151754 -122.194751 348 38350ft 383kts
02-Feb-18 19:26 44.256336 -122.220071 348 38353ft 382kts
02-Feb-18 19:27 44.360333 -122.245347 348 38360ft 382kts
02-Feb-18 19:28 44.464893 -122.270852 348 38373ft 382kts
02-Feb-18 19:29 44.569240 -122.296399 348 38376ft 382kts
02-Feb-18 19:30 44.669291 -122.320976 348 38374ft 382kts
02-Feb-18 19:31 44.773682 -122.346707 348 38377ft 382kts
02-Feb-18 19:32 44.877936 -122.372512 348 38374ft 382kts
02-Feb-18 19:33 44.982339 -122.398436 347 38375ft 382kts
02-Feb-18 19:34 45.068491 -122.419880 347 38371ft 375kts
02-Feb-18 19:35 45.184151 -122.448825 346 38377ft 373kts
02-Feb-18 19:36 45.285543 -122.474289 345 38362ft 373kts
02-Feb-18 19:37 45.387379 -122.499951 346 38358ft 373kts
02-Feb-18 19:38 45.471994 -122.521334 345 37727ft 371kts
02-Feb-18 19:39 45.570527 -122.546331 346 36188ft 359kts
02-Feb-18 19:41 45.683817 -122.575202 345 34397ft 361kts
02-Feb-18 19:41 45.766259 -122.596125 346 33064ft 364kts
02-Feb-18 19:42 45.865820 -122.620696 346 31353ft 369kts
02-Feb-18 19:43 45.965827 -122.645471 345 29663ft 360kts
02-Feb-18 19:44 46.062212 -122.669453 345 28138ft 352kts
02-Feb-18 19:45 46.147532 -122.687986 346 26776ft 346kts
02-Feb-18 19:46 46.241556 -122.706577 346 25291ft 338kts
02-Feb-18 19:47 46.333706 -122.722432 352 23769ft 335kts
02-Feb-18 19:48 46.426763 -122.726009 352 21856ft 340kts
02-Feb-18 19:49 46.522185 -122.729489 352 19621ft 352kts
02-Feb-18 19:50 46.621472 -122.733074 352 17193ft 364kts
02-Feb-18 19:51 46.723300 -122.736756 352 14743ft 371kts
02-Feb-18 19:52 46.822757 -122.694989 29 12275ft 404kts
02-Feb-18 19:53 46.904416 -122.597815 31 11978ft 352kts
02-Feb-18 19:54 46.975091 -122.513081 31 11994ft 319kts
02-Feb-18 19:55 47.043375 -122.431503 33 11494ft 323kts
02-Feb-18 19:56 47.111429 -122.350174 31 9818ft 334kts
02-Feb-18 19:57 47.195132 -122.328150 355 8040ft 327kts
02-Feb-18 19:58 47.282861 -122.346161 345 6985ft 307kts
02-Feb-18 19:59 47.360393 -122.367293 345 6996ft 293kts
02-Feb-18 20:00 47.435030 -122.386899 345 6969ft 260kts
02-Feb-18 20:01 47.505168 -122.404549 351 6092ft 262kts
02-Feb-18 20:02 47.576631 -122.386097 22 5271ft 268kts
02-Feb-18 20:03 47.631122 -122.322559 54 5108ft 241kts
02-Feb-18 20:04 47.652914 -122.236885 89 4958ft 209kts
02-Feb-18 20:05 47.694814 -122.210890 306 4973ft 205kts
02-Feb-18 20:06 47.674529 -122.272974 202 4019ft 198kts
02-Feb-18 20:07 47.628279 -122.299982 202 3851ft 162kts
02-Feb-18 20:08 47.587355 -122.306591 182 2887ft 142kts
02-Feb-18 20:09 47.548465 -122.307018 181 2107ft 138kts
02-Feb-18 20:10 47.510276 -122.307392 181 1361ft 138kts
02-Feb-18 20:11 47.472137 -122.307708 180 629ft 139kts
02-Feb-18 20:12 47.446791 -122.307832 176 399ft 31kts
02-Feb-18 20:13 47.446011 -122.306786 86 397ft 0kts
02-Feb-18 20:14 47.446098 -122.304767 94 399ft 0kts
02-Feb-18 20:15 47.446100 -122.304735 87 399ft 0kts

Navigation Log

Ident Type
Flight plan parsing failed, navigation log unavailable